Time;durP1;ratioP1;P1;durP2;ratioP2;P2;SDS_P1;SDS_P2;PMS_P1;PMS_P2;Temp;Humidity;BMP_temperature;BMP_pressure;BME280_temperature;BME280_humidity;BME280_pressure;Samples;Min_cycle;Max_cycle;Signal;HPM_P1;HPM_P2
2021/10/08 00:01:42;;;;;;;14.47;6.33;;;;;;;14.75;40.44;102858.19;1735507;82;21015;-50
2021/10/08 00:04:10;;;;;;;23.18;6.45;;;;;;;14.70;40.37;102865.19;1735277;81;21554;-47
2021/10/08 00:06:38;;;;;;;13.00;6.67;;;;;;;14.65;40.66;102869.13;1735514;81;21593;-49
2021/10/08 00:09:07;;;;;;;13.72;6.08;;;;;;;14.62;40.83;102869.59;1736396;81;21495;-48
2021/10/08 00:11:33;;;;;;;15.55;7.00;;;;;;;14.59;41.08;102863.92;1738637;82;21064;-49
2021/10/08 00:14:00;;;;;;;15.32;7.22;;;;;;;14.59;41.22;102862.62;1735218;82;21002;-51
2021/10/08 00:16:26;;;;;;;15.63;6.65;;;;;;;14.59;41.48;102857.37;1737536;81;21486;-50
2021/10/08 00:18:53;;;;;;;11.30;6.55;;;;;;;14.58;41.40;102868.75;1733830;82;21014;-49
2021/10/08 00:21:20;;;;;;;17.52;7.10;;;;;;;14.57;41.60;102859.13;1740193;81;21019;-49
2021/10/08 00:23:46;;;;;;;17.40;6.12;;;;;;;14.56;41.83;102854.79;1737397;82;21038;-50
2021/10/08 00:26:13;;;;;;;15.23;5.60;;;;;;;14.56;42.11;102860.03;1735546;82;20999;-49
2021/10/08 00:28:39;;;;;;;16.90;6.87;;;;;;;14.56;42.14;102855.22;1735454;81;21495;-48
2021/10/08 00:31:06;;;;;;;13.65;6.60;;;;;;;14.56;42.15;102867.89;1735194;81;20998;-49
2021/10/08 00:33:33;;;;;;;10.25;6.20;;;;;;;14.57;41.95;102863.06;1735524;82;21014;-49
2021/10/08 00:36:00;;;;;;;10.18;5.83;;;;;;;14.57;41.99;102865.69;1737130;82;21026;-46
2021/10/08 00:38:27;;;;;;;12.05;6.30;;;;;;;14.58;42.10;102868.75;1738653;82;20980;-49
2021/10/08 00:40:53;;;;;;;16.87;7.60;;;;;;;14.53;41.85;102866.58;1738115;82;21038;-50
2021/10/08 00:43:23;;;;;;;12.93;7.10;;;;;;;14.50;41.75;102870.97;1735085;82;21014;-49
2021/10/08 00:45:50;;;;;;;9.50;6.28;;;;;;;14.47;41.70;102870.53;1736929;82;21062;-46
2021/10/08 00:48:17;;;;;;;13.85;7.30;;;;;;;14.45;41.65;102880.58;1737308;81;21054;-47
2021/10/08 00:50:48;;;;;;;11.80;6.67;;;;;;;14.42;41.84;102878.88;1723042;82;21497;-49
2021/10/08 00:53:15;;;;;;;18.98;7.75;;;;;;;14.39;41.61;102882.80;1680028;85;21075;-49
2021/10/08 00:55:46;;;;;;;13.80;7.42;;;;;;;14.37;41.84;102885.86;1656505;85;21018;-51
2021/10/08 00:58:14;;;;;;;17.60;7.22;;;;;;;14.35;41.73;102892.85;1607837;89;21060;-50
2021/10/08 01:00:43;;;;;;;14.87;7.12;;;;;;;14.35;41.81;102891.55;1607986;89;21120;-49
2021/10/08 01:03:10;;;;;;;13.53;7.30;;;;;;;14.34;42.21;102896.33;1607876;89;22177;-49
2021/10/08 01:05:37;;;;;;;10.43;6.08;;;;;;;14.34;42.40;102898.95;1606923;89;21010;-49
2021/10/08 01:08:05;;;;;;;18.60;6.62;;;;;;;14.35;42.65;102892.85;1578027;90;21171;-50
2021/10/08 01:10:33;;;;;;;17.25;6.20;;;;;;;14.37;42.51;102888.91;1582226;90;21569;-49
2021/10/08 01:13:00;;;;;;;12.65;6.50;;;;;;;14.37;42.33;102889.79;1584880;90;21045;-49
2021/10/08 01:15:28;;;;;;;13.70;7.17;;;;;;;14.36;42.67;102889.34;1582614;90;21619;-49
2021/10/08 01:17:56;;;;;;;13.90;6.25;;;;;;;14.36;42.45;102884.10;1582706;90;21049;-47
2021/10/08 01:20:23;;;;;;;11.05;6.60;;;;;;;14.37;42.35;102884.55;1582567;90;21074;-49
2021/10/08 01:22:58;;;;;;;14.00;6.05;;;;;;;14.39;42.68;102885.41;1579635;90;21122;-49
2021/10/08 01:25:27;;;;;;;14.65;6.67;;;;;;;14.40;42.52;102884.55;1583031;90;21090;-50
2021/10/08 01:27:55;;;;;;;14.58;7.12;;;;;;;14.42;42.54;102892.40;1584222;90;21549;-49
2021/10/08 01:30:24;;;;;;;14.23;6.35;;;;;;;14.41;42.66;102888.90;1595131;90;21561;-49
2021/10/08 01:32:51;;;;;;;14.90;6.00;;;;;;;14.41;42.97;102888.90;1595373;90;21065;-49
2021/10/08 01:35:18;;;;;;;18.45;6.40;;;;;;;14.42;42.85;102889.34;1595136;90;21053;-49
2021/10/08 01:37:45;;;;;;;16.50;6.20;;;;;;;14.42;42.97;102888.04;1590092;90;21505;-49
2021/10/08 01:40:13;;;;;;;14.07;6.00;;;;;;;14.43;43.21;102889.77;1594964;90;21118;-49
2021/10/08 01:42:41;;;;;;;8.73;5.53;;;;;;;14.44;43.18;102895.45;1595073;90;21029;-48
2021/10/08 01:45:10;;;;;;;14.75;6.33;;;;;;;14.45;43.07;102888.01;1595010;90;21135;-49
2021/10/08 01:47:37;;;;;;;11.73;5.47;;;;;;;14.46;43.30;102883.65;1584390;90;21041;-49
2021/10/08 01:50:06;;;;;;;10.90;5.95;;;;;;;14.46;43.17;102887.58;1611387;88;21117;-48
2021/10/08 01:52:35;;;;;;;11.40;5.70;;;;;;;14.47;43.32;102888.88;1615254;88;21030;-49
2021/10/08 01:55:02;;;;;;;10.75;5.30;;;;;;;14.48;43.38;102888.02;1649929;85;21081;-47
2021/10/08 01:57:30;;;;;;;15.40;5.75;;;;;;;14.49;43.57;102889.73;1678898;85;21089;-46
2021/10/08 01:59:58;;;;;;;11.55;5.83;;;;;;;14.51;43.68;102891.91;1676204;85;21127;-50
2021/10/08 02:02:25;;;;;;;11.85;6.20;;;;;;;14.53;43.67;102892.77;1677040;85;21045;-49
2021/10/08 02:04:53;;;;;;;9.15;5.58;;;;;;;14.54;43.84;102890.60;1676646;85;21117;-49
2021/10/08 02:07:19;;;;;;;15.45;5.47;;;;;;;14.54;43.78;102891.03;1684576;84;21123;-49
2021/10/08 02:09:46;;;;;;;11.43;5.60;;;;;;;14.54;43.88;102887.11;1688188;84;21083;-49
2021/10/08 02:12:13;;;;;;;16.27;6.12;;;;;;;14.54;43.70;102881.44;1651858;86;21090;-50
2021/10/08 02:14:42;;;;;;;9.70;5.53;;;;;;;14.53;43.67;102886.22;1685873;84;21043;-50
2021/10/08 02:17:09;;;;;;;11.05;6.17;;;;;;;14.52;43.58;102885.81;1687469;84;21022;-49
2021/10/08 02:19:36;;;;;;;12.30;6.08;;;;;;;14.51;43.67;102881.86;1688743;84;21526;-49
2021/10/08 02:22:03;;;;;;;9.90;6.00;;;;;;;14.49;43.79;102876.64;1687884;84;21041;-51
2021/10/08 02:24:31;;;;;;;14.68;5.80;;;;;;;14.47;43.98;102881.02;1700231;83;21002;-47
2021/10/08 02:26:58;;;;;;;10.38;6.08;;;;;;;14.47;43.80;102882.75;1711592;83;21045;-50
2021/10/08 02:29:27;;;;;;;16.40;6.30;;;;;;;14.46;43.97;102881.03;1705413;83;21038;-47
2021/10/08 02:31:54;;;;;;;9.65;5.83;;;;;;;14.45;44.49;102879.27;1708454;83;21483;-50
2021/10/08 02:34:20;;;;;;;12.65;6.35;;;;;;;14.45;44.11;102887.13;1708582;83;20992;-47
2021/10/08 02:36:47;;;;;;;25.68;7.15;;;;;;;14.45;44.25;102888.01;1708286;83;21056;-50
2021/10/08 02:39:14;;;;;;;17.25;6.30;;;;;;;14.46;44.50;102883.65;1708503;83;21513;-50
2021/10/08 02:41:41;;;;;;;18.95;6.97;;;;;;;14.46;44.43;102888.45;1710933;83;21049;-48
2021/10/08 02:44:08;;;;;;;14.73;6.50;;;;;;;14.46;44.81;102888.45;1711318;83;21034;-50
2021/10/08 02:46:37;;;;;;;12.73;5.60;;;;;;;14.47;44.54;102886.25;1703227;83;21053;-50
2021/10/08 02:49:04;;;;;;;13.68;5.97;;;;;;;14.46;44.80;102884.95;1700819;83;21021;-49
2021/10/08 02:51:35;;;;;;;13.98;6.28;;;;;;;14.47;44.50;102880.14;1680822;84;21545;-49
2021/10/08 02:54:02;;;;;;;14.45;6.12;;;;;;;14.45;44.17;102882.77;1705250;83;21013;-49
2021/10/08 02:56:30;;;;;;;11.83;5.72;;;;;;;14.44;44.48;102884.97;1711540;83;21022;-52
2021/10/08 02:58:57;;;;;;;12.80;5.90;;;;;;;14.45;44.71;102890.63;1710855;83;21072;-51
2021/10/08 03:01:25;;;;;;;16.30;5.90;;;;;;;14.46;44.12;102883.65;1708126;83;21081;-49
2021/10/08 03:03:51;;;;;;;11.97;6.30;;;;;;;14.44;44.08;102888.91;1707718;82;21021;-49
2021/10/08 03:06:18;;;;;;;18.20;7.05;;;;;;;14.41;43.95;102885.41;1708724;82;21022;-50
2021/10/08 03:08:46;;;;;;;11.75;5.80;;;;;;;14.37;43.62;102879.31;1731865;82;21031;-49
2021/10/08 03:11:12;;;;;;;12.30;6.35;;;;;;;14.34;43.61;102881.92;1729913;82;21055;-49
2021/10/08 03:13:41;;;;;;;14.33;6.95;;;;;;;14.33;43.76;102883.25;1727305;82;21028;-47
2021/10/08 03:16:08;;;;;;;13.55;6.67;;;;;;;14.28;43.97;102884.57;1727359;82;21023;-49
2021/10/08 03:18:35;;;;;;;14.95;6.53;;;;;;;14.24;43.59;102886.73;1727500;82;21495;-49
2021/10/08 03:21:05;;;;;;;13.85;7.58;;;;;;;14.21;43.93;102885.45;1727622;82;21042;-50
2021/10/08 03:23:32;;;;;;;12.28;6.78;;;;;;;14.17;43.95;102890.27;1727716;82;21043;-47
2021/10/08 03:25:58;;;;;;;10.53;5.78;;;;;;;14.14;43.70;102883.71;1724108;82;21440;-49
2021/10/08 03:28:25;;;;;;;18.30;7.15;;;;;;;14.11;43.73;102891.59;1730308;82;21058;-50
2021/10/08 03:30:52;;;;;;;15.48;6.92;;;;;;;14.07;43.88;102889.86;1728951;82;20952;-50
2021/10/08 03:33:19;;;;;;;10.15;6.35;;;;;;;14.04;43.86;102886.35;1728554;82;21030;-50
2021/10/08 03:35:46;;;;;;;12.55;6.42;;;;;;;14.01;43.91;102896.84;1729809;82;20998;-50
2021/10/08 03:38:15;;;;;;;11.33;6.60;;;;;;;13.97;43.86;102886.83;1730543;82;21582;-50
2021/10/08 03:40:47;;;;;;;11.97;6.03;;;;;;;13.95;44.03;102892.47;1731336;82;21499;-50
2021/10/08 03:43:13;;;;;;;10.65;6.83;;;;;;;13.70;44.48;102896.02;1726316;82;21515;-47
2021/10/08 03:45:46;;;;;;;12.95;7.15;;;;;;;13.82;44.35;102901.23;1714894;82;21011;-50
2021/10/08 03:50:57;;;;;;;10.28;6.22;;;;;;;13.90;44.51;102904.71;1729358;82;21772;-50
2021/10/08 03:53:23;;;;;;;12.90;6.45;;;;;;;13.87;43.91;102905.58;1729640;82;21578;-50
2021/10/08 03:55:50;;;;;;;14.38;7.05;;;;;;;13.84;44.02;102910.84;1730656;82;20974;-48
2021/10/08 03:58:17;;;;;;;13.70;6.85;;;;;;;13.83;43.75;102912.13;1730285;82;21031;-48
2021/10/08 04:00:43;;;;;;;12.00;6.67;;;;;;;13.81;43.98;102916.48;1727898;82;20980;-50
2021/10/08 04:03:12;;;;;;;11.30;6.47;;;;;;;13.78;43.87;102916.50;1727410;82;20999;-49
2021/10/08 04:05:39;;;;;;;16.52;6.78;;;;;;;13.74;43.59;102909.10;1727604;82;21062;-50
2021/10/08 04:08:07;;;;;;;11.57;7.00;;;;;;;13.71;43.86;102909.09;1733062;82;21046;-50
2021/10/08 04:10:33;;;;;;;12.78;6.10;;;;;;;13.69;43.71;102908.65;1735440;81;21015;-50
2021/10/08 04:13:00;;;;;;;14.25;6.78;;;;;;;13.65;43.57;102905.59;1738265;81;20999;-50
2021/10/08 04:15:28;;;;;;;10.00;6.53;;;;;;;13.63;44.01;102909.96;1735189;82;21090;-49
2021/10/08 04:17:55;;;;;;;11.22;5.85;;;;;;;13.61;43.82;102909.09;1736690;82;21038;-50
2021/10/08 04:20:22;;;;;;;13.10;6.08;;;;;;;13.62;43.85;102911.70;1739619;82;21558;-50
2021/10/08 04:22:49;;;;;;;15.45;6.05;;;;;;;13.61;43.76;102911.70;1738259;82;21027;-50
2021/10/08 04:25:16;;;;;;;11.65;5.90;;;;;;;13.60;43.92;102917.83;1736098;82;21026;-48
2021/10/08 04:27:42;;;;;;;13.68;6.35;;;;;;;13.60;44.09;102923.06;1735246;81;20987;-48
2021/10/08 04:30:10;;;;;;;11.80;7.20;;;;;;;13.59;44.10;102919.56;1735507;81;21018;-50
2021/10/08 04:32:39;;;;;;;10.55;6.28;;;;;;;13.57;43.91;102917.81;1735834;81;21015;-51
2021/10/08 04:35:08;;;;;;;12.35;6.40;;;;;;;13.52;43.69;102923.03;1735024;82;21042;-50
2021/10/08 04:37:35;;;;;;;13.30;6.83;;;;;;;13.43;43.09;102930.89;1737848;82;21014;-50
2021/10/08 04:40:03;;;;;;;11.05;6.80;;;;;;;13.34;43.20;102924.77;1738375;82;21038;-48
2021/10/08 04:42:32;;;;;;;18.57;6.75;;;;;;;13.27;43.33;102933.48;1705750;83;21074;-47
2021/10/08 04:44:59;;;;;;;9.13;6.08;;;;;;;13.21;43.36;102933.48;1734772;82;21478;-49
2021/10/08 04:47:26;;;;;;;12.55;6.22;;;;;;;13.17;43.40;102943.49;1735909;81;21018;-50
2021/10/08 04:49:53;;;;;;;13.13;6.67;;;;;;;13.13;43.34;102946.97;1735209;81;20999;-50
2021/10/08 04:52:19;;;;;;;11.12;6.05;;;;;;;13.10;43.37;102943.02;1735597;82;21003;-49
2021/10/08 04:54:46;;;;;;;11.50;6.25;;;;;;;13.08;43.07;102943.45;1737055;81;20971;-48
2021/10/08 04:57:13;;;;;;;15.95;7.45;;;;;;;13.05;43.19;102943.00;1738921;82;20974;-50
2021/10/08 04:59:41;;;;;;;14.40;6.70;;;;;;;13.02;43.31;102938.60;1738234;82;21022;-52
2021/10/08 05:02:07;;;;;;;14.40;6.47;;;;;;;13.00;43.26;102937.72;1742384;82;21073;-50
2021/10/08 05:04:35;;;;;;;13.65;6.35;;;;;;;12.97;43.31;102937.73;1736572;81;21042;-49
2021/10/08 05:07:03;;;;;;;15.90;7.05;;;;;;;12.92;43.63;102942.05;1737532;82;21049;-49
2021/10/08 05:09:30;;;;;;;14.95;7.03;;;;;;;12.86;43.40;102942.04;1738457;82;21027;-47
2021/10/08 05:11:58;;;;;;;13.20;6.70;;;;;;;12.82;43.48;102944.63;1738691;82;21049;-50
2021/10/08 05:14:25;;;;;;;10.90;7.03;;;;;;;12.76;43.69;102940.27;1735919;82;21062;-51
2021/10/08 05:16:53;;;;;;;11.22;6.17;;;;;;;12.74;43.63;102947.65;1732951;82;21062;-49
2021/10/08 05:19:19;;;;;;;17.40;9.03;;;;;;;12.69;43.79;102946.34;1735272;82;21569;-51
2021/10/08 05:21:48;;;;;;;10.85;6.83;;;;;;;12.65;44.04;102949.78;1731082;82;21078;-51
2021/10/08 05:24:17;;;;;;;15.80;7.05;;;;;;;12.61;44.17;102949.33;1737427;81;21046;-50
2021/10/08 05:26:43;;;;;;;16.57;8.30;;;;;;;12.57;44.20;102947.57;1738423;82;21002;-51
2021/10/08 05:29:11;;;;;;;20.75;10.70;;;;;;;12.57;44.65;102946.72;1738164;82;21515;-50
2021/10/08 05:31:38;;;;;;;14.58;8.58;;;;;;;12.56;44.42;102951.06;1735831;82;21018;-51
2021/10/08 05:34:05;;;;;;;15.28;8.00;;;;;;;12.54;44.35;102954.10;1737247;82;21078;-51
2021/10/08 05:36:33;;;;;;;19.17;9.28;;;;;;;12.54;44.34;102943.66;1737370;81;21002;-51
2021/10/08 05:38:59;;;;;;;16.17;7.35;;;;;;;12.53;44.55;102952.34;1738632;82;21034;-50
2021/10/08 05:41:26;;;;;;;17.37;8.23;;;;;;;12.51;44.10;102950.61;1725385;82;21570;-48
2021/10/08 05:43:52;;;;;;;14.05;7.25;;;;;;;12.46;44.01;102947.97;1736910;82;21041;-51
2021/10/08 05:46:20;;;;;;;13.72;6.67;;;;;;;12.45;44.00;102951.43;1736582;81;21069;-50
2021/10/08 05:48:47;;;;;;;9.85;7.08;;;;;;;12.45;44.16;102946.20;1737620;82;21022;-52
2021/10/08 05:51:16;;;;;;;9.98;6.17;;;;;;;12.45;44.08;102948.82;1738324;82;21539;-48
2021/10/08 05:53:42;;;;;;;12.23;7.08;;;;;;;12.46;44.04;102953.20;1738539;82;20998;-51
2021/10/08 05:56:09;;;;;;;13.05;7.20;;;;;;;12.48;44.04;102950.16;1736947;82;21538;-51
2021/10/08 05:58:35;;;;;;;13.83;6.83;;;;;;;12.49;44.06;102945.81;1727981;82;21031;-50
2021/10/08 06:01:02;;;;;;;14.35;6.92;;;;;;;12.54;44.21;102951.49;1736605;82;21016;-52
2021/10/08 06:03:29;;;;;;;12.65;6.33;;;;;;;12.57;44.14;102946.27;1738596;82;21530;-50
2021/10/08 06:05:55;;;;;;;15.32;6.90;;;;;;;12.62;44.15;102955.01;1738288;82;21069;-50
2021/10/08 06:08:24;;;;;;;16.57;9.33;;;;;;;12.67;43.84;102949.39;1739562;82;21074;-51
2021/10/08 06:10:51;;;;;;;10.65;6.75;;;;;;;12.74;43.55;102942.00;1733994;82;21015;-51
2021/10/08 06:13:18;;;;;;;13.28;6.03;;;;;;;12.80;43.66;102945.05;1728076;82;21029;-52
2021/10/08 06:15:45;;;;;;;11.20;6.22;;;;;;;12.88;43.66;102940.30;1728619;82;21523;-51
2021/10/08 06:18:12;;;;;;;9.80;5.70;;;;;;;12.96;43.42;102937.28;1728347;82;21082;-51
2021/10/08 06:20:39;;;;;;;10.68;6.40;;;;;;;13.05;43.26;102930.81;1729662;82;21047;-51
2021/10/08 06:23:08;;;;;;;12.58;6.53;;;;;;;13.14;43.12;102933.01;1726140;82;21066;-51
2021/10/08 06:25:35;;;;;;;11.88;5.53;;;;;;;13.21;43.15;102929.55;1732580;82;21043;-51
2021/10/08 06:28:04;;;;;;;9.48;5.97;;;;;;;13.28;43.14;102930.86;1721969;82;21058;-51
2021/10/08 06:30:31;;;;;;;17.10;6.33;;;;;;;13.35;42.94;102931.75;1727192;82;21507;-48
2021/10/08 06:32:58;;;;;;;13.72;6.35;;;;;;;13.42;43.28;102934.79;1728618;82;21499;-50
2021/10/08 06:35:24;;;;;;;8.95;5.67;;;;;;;13.50;43.11;102938.28;1730616;82;21007;-50
2021/10/08 06:37:52;;;;;;;17.55;6.50;;;;;;;13.57;43.43;102930.89;1730619;82;20994;-51
2021/10/08 06:40:19;;;;;;;12.10;6.33;;;;;;;13.68;43.81;102936.55;1728191;82;21058;-50
2021/10/08 06:42:48;;;;;;;12.07;6.17;;;;;;;13.80;43.63;102938.31;1728765;82;21047;-50
2021/10/08 06:45:21;;;;;;;13.45;6.70;;;;;;;13.91;43.56;102931.30;1723642;82;21527;-50
2021/10/08 06:47:48;;;;;;;18.55;7.37;;;;;;;14.00;43.86;102932.61;1730296;82;21570;-51
2021/10/08 06:50:16;;;;;;;13.30;7.15;;;;;;;14.07;44.19;102929.13;1730396;82;21098;-51
2021/10/08 06:52:43;;;;;;;15.00;6.70;;;;;;;14.11;44.19;102920.39;1722312;82;21031;-50
2021/10/08 06:55:12;;;;;;;11.12;6.75;;;;;;;14.14;44.45;102929.53;1727515;82;21515;-48
2021/10/08 06:57:40;;;;;;;10.18;6.42;;;;;;;14.14;44.58;102930.84;1727465;82;21046;-50
2021/10/08 07:00:08;;;;;;;12.82;6.20;;;;;;;14.17;44.81;102933.47;1730208;82;20988;-51
2021/10/08 07:02:47;;;;;;;11.95;6.97;;;;;;;14.21;44.99;102932.58;1730552;82;21523;-50
2021/10/08 07:05:14;;;;;;;14.73;6.28;;;;;;;14.25;45.07;102928.20;1729790;82;20995;-50
2021/10/08 07:07:41;;;;;;;14.98;6.62;;;;;;;14.31;45.36;102934.33;1706777;83;21069;-47
2021/10/08 07:10:09;;;;;;;11.65;5.60;;;;;;;14.36;45.14;102935.17;1716853;82;21034;-50
2021/10/08 07:12:36;;;;;;;12.28;5.40;;;;;;;14.43;45.00;102936.91;1715170;83;20998;-50
2021/10/08 07:15:12;;;;;;;12.80;6.22;;;;;;;14.50;45.09;102938.65;1714394;83;21026;-49
2021/10/08 07:17:41;;;;;;;14.30;5.67;;;;;;;14.60;45.12;102938.16;1718362;83;21031;-49
2021/10/08 07:20:08;;;;;;;10.72;5.35;;;;;;;14.72;44.44;102942.47;1715348;83;21062;-48
2021/10/08 07:22:36;;;;;;;15.83;6.35;;;;;;;14.79;44.24;102941.58;1716312;83;21034;-48
2021/10/08 07:25:06;;;;;;;12.35;6.00;;;;;;;14.86;44.16;102934.14;1716214;83;21022;-50
2021/10/08 07:27:33;;;;;;;8.03;5.50;;;;;;;14.92;44.04;102938.88;1715993;83;21038;-50
2021/10/08 07:29:59;;;;;;;13.15;5.25;;;;;;;14.98;43.46;102936.23;1716626;83;21483;-49
2021/10/08 07:32:28;;;;;;;7.58;5.90;;;;;;;15.03;43.57;102934.90;1716416;83;20987;-50
2021/10/08 07:34:55;;;;;;;14.38;6.12;;;;;;;15.09;43.38;102947.97;1718126;82;21077;-47
2021/10/08 07:37:22;;;;;;;8.80;5.37;;;;;;;15.15;43.36;102949.24;1719342;83;21057;-50
2021/10/08 07:39:49;;;;;;;12.00;5.90;;;;;;;15.20;43.32;102948.36;1718140;83;21034;-49
2021/10/08 07:42:16;;;;;;;12.10;6.45;;;;;;;15.26;43.22;102946.13;1716781;83;21002;-50
2021/10/08 07:44:43;;;;;;;12.75;6.17;;;;;;;15.31;43.15;102944.36;1721234;83;21036;-51
2021/10/08 07:47:10;;;;;;;13.65;5.67;;;;;;;15.36;43.10;102942.56;1715667;83;21534;-54
2021/10/08 07:49:37;;;;;;;16.80;6.33;;;;;;;15.41;42.93;102953.91;1716130;83;21078;-50
2021/10/08 07:52:05;;;;;;;13.00;5.50;;;;;;;15.43;42.77;102947.78;1716211;82;21094;-50
2021/10/08 07:54:32;;;;;;;13.38;5.87;;;;;;;15.45;42.72;102947.79;1716419;83;21003;-50
2021/10/08 07:56:58;;;;;;;11.78;5.00;;;;;;;15.45;42.86;102946.05;1717592;83;21523;-48
2021/10/08 07:59:25;;;;;;;11.53;5.33;;;;;;;15.49;42.92;102939.02;1719133;83;21065;-49
2021/10/08 08:01:51;;;;;;;12.82;5.37;;;;;;;15.54;42.87;102942.45;1723470;83;21030;-50
2021/10/08 08:04:18;;;;;;;10.68;4.70;;;;;;;15.59;42.78;102952.48;1714164;82;21503;-49
2021/10/08 08:06:44;;;;;;;9.78;5.05;;;;;;;15.64;42.54;102949.37;1723288;83;21090;-48
2021/10/08 08:09:11;;;;;;;8.18;4.87;;;;;;;15.67;42.75;102948.48;1731721;82;21046;-51
2021/10/08 08:11:38;;;;;;;12.15;4.92;;;;;;;15.71;42.59;102944.95;1737662;82;21010;-51
2021/10/08 08:14:07;;;;;;;14.68;6.37;;;;;;;15.72;42.56;102944.95;1730166;82;21487;-51
2021/10/08 08:16:33;;;;;;;10.90;5.72;;;;;;;15.73;42.50;102945.37;1735127;82;21062;-50
2021/10/08 08:19:00;;;;;;;12.35;6.55;;;;;;;15.73;42.65;102946.69;1736665;82;21483;-47
2021/10/08 08:21:26;;;;;;;14.38;6.28;;;;;;;15.75;42.62;102944.03;1738430;82;21031;-48
2021/10/08 08:23:53;;;;;;;11.68;6.22;;;;;;;15.76;42.30;102950.61;1738399;82;21637;-50
2021/10/08 08:26:19;;;;;;;11.93;5.70;;;;;;;15.77;42.29;102948.40;1734186;82;21051;-52
2021/10/08 08:28:46;;;;;;;12.28;5.40;;;;;;;15.80;42.11;102953.64;1738738;82;21015;-50
2021/10/08 08:31:13;;;;;;;10.63;5.85;;;;;;;15.81;42.10;102949.23;1738274;82;21526;-50
2021/10/08 08:33:40;;;;;;;14.03;5.47;;;;;;;15.81;42.10;102950.11;1735567;82;21540;-47
2021/10/08 08:36:07;;;;;;;13.18;5.90;;;;;;;15.83;42.07;102956.22;1735442;82;21003;-49
2021/10/08 08:38:34;;;;;;;9.98;5.17;;;;;;;15.85;42.03;102949.20;1735649;81;21467;-50
2021/10/08 08:41:01;;;;;;;9.95;5.15;;;;;;;15.89;41.96;102949.59;1735261;82;21030;-54
2021/10/08 08:43:28;;;;;;;13.20;5.50;;;;;;;15.91;41.76;102946.98;1736666;82;20998;-51
2021/10/08 08:45:56;;;;;;;15.23;5.70;;;;;;;15.91;41.38;102949.14;1738412;82;21046;-50
2021/10/08 08:48:23;;;;;;;14.35;6.17;;;;;;;15.90;41.31;102952.67;1736593;82;21038;-50
2021/10/08 08:50:49;;;;;;;12.47;5.05;;;;;;;15.88;41.54;102947.88;1736773;82;21069;-52
2021/10/08 08:53:21;;;;;;;12.07;5.47;;;;;;;15.92;41.40;102945.65;1737714;82;21030;-47
2021/10/08 08:55:49;;;;;;;16.23;6.20;;;;;;;15.96;41.23;102949.98;1738681;82;21066;-50
2021/10/08 08:58:20;;;;;;;9.95;5.28;;;;;;;15.99;41.16;102955.19;1738608;82;21009;-48
2021/10/08 09:00:58;;;;;;;9.98;5.35;;;;;;;16.02;41.08;102955.17;1737697;82;21523;-47
2021/10/08 09:03:25;;;;;;;15.32;5.87;;;;;;;16.05;40.83;102952.50;1652618;85;21031;-50
2021/10/08 09:05:52;;;;;;;14.13;5.50;;;;;;;16.05;40.65;102951.19;1678280;85;21631;-51
2021/10/08 09:08:18;;;;;;;10.90;5.22;;;;;;;16.07;40.47;102953.36;1679617;85;21763;-50
2021/10/08 09:10:48;;;;;;;15.40;4.95;;;;;;;16.10;40.62;102945.47;1685169;85;21086;-51
2021/10/08 09:13:15;;;;;;;11.38;5.30;;;;;;;16.16;40.47;102943.20;1685417;85;21554;-51
2021/10/08 09:15:53;;;;;;;12.35;5.60;;;;;;;16.22;40.06;102935.27;1685119;85;21073;-51
2021/10/08 09:18:26;;;;;;;10.63;5.53;;;;;;;16.24;39.89;102935.68;1628204;88;21515;-49
2021/10/08 09:21:06;;;;;;;20.02;5.60;;;;;;;16.25;39.75;102936.13;1586255;90;21080;-51
2021/10/08 09:23:41;;;;;;;12.78;5.62;;;;;;;16.25;39.76;102940.06;1586740;90;21087;-50
2021/10/08 09:26:23;;;;;;;14.60;6.45;;;;;;;16.26;39.90;102933.91;1542877;93;21150;-50
2021/10/08 09:29:05;;;;;;;12.40;5.62;;;;;;;16.27;39.79;102938.73;1501120;95;21135;-51
2021/10/08 09:31:43;;;;;;;13.35;5.83;;;;;;;16.32;39.58;102934.74;1501655;95;21162;-50
2021/10/08 09:34:21;;;;;;;11.28;5.90;;;;;;;16.36;39.81;102945.64;1501703;95;21104;-50
2021/10/08 09:39:21;;;;;;;;;;;;;;;16.47;39.37;102934.55;1409465;101;21672;-47
2021/10/08 09:42:02;;;;;;;12.10;5.80;;;;;;;16.50;39.30;102934.13;1429978;100;20173;-51
2021/10/08 09:44:30;;;;;;;15.05;5.37;;;;;;;16.54;39.21;102935.83;1429551;100;21165;-52
2021/10/08 09:47:17;;;;;;;11.15;5.55;;;;;;;16.57;39.16;102938.87;1424991;100;21633;-52
2021/10/08 09:49:47;;;;;;;14.25;5.00;;;;;;;16.61;38.92;102927.43;1427256;100;21242;-51
2021/10/08 09:52:30;;;;;;;9.73;5.58;;;;;;;16.60;38.61;102937.50;1427613;100;21620;-51
2021/10/08 09:55:11;;;;;;;12.73;5.33;;;;;;;16.58;38.80;102936.66;1426969;100;21112;-51
2021/10/08 09:57:54;;;;;;;13.60;6.25;;;;;;;16.61;38.71;102934.00;1385801;103;21664;-50
2021/10/08 10:03:18;;;;;;;12.50;5.17;;;;;;;16.62;38.89;102927.84;1365765;103;21651;-51
2021/10/08 10:05:45;;;;;;;11.45;4.97;;;;;;;16.61;38.53;102930.91;1378695;103;21179;-50
2021/10/08 10:08:13;;;;;;;19.10;4.75;;;;;;;16.61;38.62;102933.53;1378790;103;21596;-50
2021/10/08 10:10:40;;;;;;;7.83;4.90;;;;;;;16.62;38.57;102937.04;1374703;104;21724;-50
2021/10/08 10:13:10;;;;;;;11.03;4.67;;;;;;;16.63;38.71;102926.50;1375313;104;21069;-50
2021/10/08 10:15:41;;;;;;;17.12;5.17;;;;;;;16.66;38.67;102930.85;1387192;102;21162;-51
2021/10/08 10:18:11;;;;;;;15.13;5.12;;;;;;;16.69;38.21;102934.30;1403948;100;21681;-51
2021/10/08 10:20:38;;;;;;;9.78;4.65;;;;;;;16.70;38.11;102937.81;1413372;101;21093;-51
2021/10/08 10:23:06;;;;;;;9.45;4.85;;;;;;;16.71;38.34;102935.63;1413582;101;21110;-50
2021/10/08 10:25:34;;;;;;;13.65;4.83;;;;;;;16.75;38.55;102930.75;1442427;98;21214;-50
2021/10/08 10:28:01;;;;;;;10.43;4.97;;;;;;;16.78;38.08;102933.33;1455428;98;21146;-48
2021/10/08 10:30:28;;;;;;;10.10;4.80;;;;;;;16.79;37.69;102932.45;1453648;98;21171;-51
2021/10/08 10:32:55;;;;;;;13.65;4.58;;;;;;;16.82;37.67;102927.13;1453130;98;21117;-50
2021/10/08 10:35:48;;;;;;;14.33;5.08;;;;;;;16.82;37.46;102917.49;1467820;93;21557;-50
2021/10/08 10:38:32;;;;;;;9.83;4.58;;;;;;;16.81;36.99;102912.27;1548724;92;21536;-50
2021/10/08 10:41:13;;;;;;;11.57;4.47;;;;;;;16.80;37.08;102905.25;1550323;92;21008;-49
2021/10/08 10:43:50;;;;;;;11.70;4.78;;;;;;;16.85;36.87;102911.33;1550770;92;21089;-48
2021/10/08 10:46:39;;;;;;;10.43;4.87;;;;;;;16.85;36.64;102907.38;1526810;93;21104;-49
2021/10/08 10:49:28;;;;;;;12.75;5.40;;;;;;;16.84;36.87;102906.95;1526953;93;21085;-49
2021/10/08 10:52:02;;;;;;;10.33;5.07;;;;;;;16.85;36.78;102904.76;1514125;94;21109;-50
2021/10/08 10:54:42;;;;;;;12.13;5.00;;;;;;;16.87;36.85;102885.88;1558445;90;21632;-48
2021/10/08 10:57:31;;;;;;;13.25;5.12;;;;;;;16.89;36.92;102882.34;1589732;90;21062;-49
2021/10/08 11:00:22;;;;;;;10.45;4.90;;;;;;;16.95;36.76;102876.12;1545370;91;21045;-50
2021/10/08 11:03:11;;;;;;;15.72;6.15;;;;;;;16.99;36.49;102873.87;1553420;91;21081;-50
2021/10/08 11:06:07;;;;;;;25.43;12.93;;;;;;;17.02;36.51;102869.89;1568299;91;21618;-51
2021/10/08 11:09:17;;;;;;;14.68;8.08;;;;;;;17.06;36.82;102876.84;1570361;90;21620;-48
2021/10/08 11:11:40;;;;;;;16.15;7.05;;;;;;;17.14;37.00;102863.13;1564084;90;21056;-49
2021/10/08 11:14:19;;;;;;;18.20;6.17;;;;;;;17.23;36.58;102868.22;1561639;90;21053;-48
2021/10/08 11:16:48;;;;;;;17.92;6.55;;;;;;;17.27;36.63;102863.33;1484986;95;21171;-49
2021/10/08 11:19:39;;;;;;;17.48;6.30;;;;;;;17.32;36.13;102855.38;1485124;95;21120;-49
2021/10/08 11:22:05;;;;;;;12.47;4.45;;;;;;;17.31;36.14;102865.02;1483446;95;21143;-46
2021/10/08 11:24:32;;;;;;;13.72;5.60;;;;;;;17.26;36.53;102876.09;1496047;95;21091;-49
2021/10/08 11:27:02;;;;;;;10.93;5.50;;;;;;;17.28;36.59;102870.34;1497718;96;21087;-49
2021/10/08 11:29:32;;;;;;;12.10;5.77;;;;;;;17.27;36.58;102872.54;1496075;96;21071;-47
2021/10/08 11:32:10;;;;;;;15.75;6.58;;;;;;;17.18;36.75;102879.28;1497960;96;21095;-47
2021/10/08 11:34:53;;;;;;;16.12;5.62;;;;;;;17.17;36.73;102884.11;1497209;96;21119;-50